West Palm Beach, FL (33413)

7:15 PM EDT on August 01, 2015 (GMT -0400)
Belvedere Homes | | Change Station
CLOSE
Current Station
Personal Weather Station
Location: West Palm Beach, FL
Elevation: 39 ft
Nearby Weather Stations

Elev 39 ft 26.70 °N, 80.10 °W | Updated 13 seconds ago

Mostly Cloudy
Mostly Cloudy
75.7 °F
Feels Like 77 °F
N
0.0
Wind Variable Wind from West
Gusts 5.0 mph

Today
High -- | Low -- °F
--% Chance of Precip.
Yesterday
High -- | Low -- °F
Precip. -- in
6:45 AM 8:08 PM
Full, 97% visible
Pressure 30.02 in
Visibility 10.0 miles
Clouds Mostly Cloudy 2500 ft
Mostly Cloudy 6500 ft
Mostly Cloudy 11000 ft
Heat Index 77 °F
Dew Point 69 °F
Humidity 80%
Rainfall 0.05 in
Snow Depth Not available.
UV 0 out of 12
Pollen 2.70 out of 12
Air Quality Not available.
Flu Activity Not available.
SPECI KPBI 012306Z 23018G28KT 10SM BKN025CB BKN065 BKN110 23/19 A3002 RMK AO2 PK WND 23028/2258 WSHFT 2246 CB SE W-NW MOV N T02330189

More Conditions Fewer Conditions

Pressure 30.02 in
Visibility 10.0 miles
Clouds Mostly Cloudy 2500 ft
Mostly Cloudy 6500 ft
Mostly Cloudy 11000 ft
Heat Index 77 °F
Dew Point 69 °F
Humidity 80%
Rainfall 0.05 in
Snow Depth Not available.
UV 0 out of 12
Pollen 2.70 out of 12
Air Quality Not available.
Flu Activity Not available.
SPECI KPBI 012306Z 23018G28KT 10SM BKN025CB BKN065 BKN110 23/19 A3002 RMK AO2 PK WND 23028/2258 WSHFT 2246 CB SE W-NW MOV N T02330189

More Conditions Fewer Conditions

Nowcast | as of 6:31 PM EDT on August 1, 2015

At 630 PM EDT...Doppler radar indicated a line of showers and thunderstorms... along a line extending from 6 miles south of lion country safari park to Highland Beach moving northeast at 20 mph. These showers and thunderstorms will produce gusty winds of 30 to 40 mph along with lightning and heavy rainfall over central and northern Metro Palm Beach County through 730 PM. Locations impacted include... West Palm Beach...Boca Raton...Boynton Beach...Delray Beach... Wellington...Jupiter...Palm Beach Gardens...Lake Worth...Riviera Beach...Palm Beach...Tequesta...Juno Beach...Greenacres...Royal Palm Beach...Palm Springs...North Palm Beach...Lantana...Lake Park... Atlantis and Haverhill.

×

10-Day Weather Forecast

×

Almanac

Astronomy

Aug. 01, 2015 Rise Set
Actual Time
Civil Twilight
Nautical Twilight
Astronomical Twilight
Moon
Length of Visible Light
Length of Day
Tomorrow will be .
, % of the Moon is Illuminated

Today's Extremes

State Highs State Lows

Community

WunderPhotos

Upload Photos

1,843,087 photos uploaded!

WunderBlogs® & News

Nearby

Air Quality

  Air Quality AQ Index Pollutant
Not available.

Snow Depth

Station Depth Elevation

Earthquake Activity

City Distance Mag. Time & Date
Minimum magnitude displayed is 2.5.

Coastal Water Temperatures

Place Temperature

Stations

Nearby Weather Stations

Station Location Temp. Windchill Dew Point Humidity Wind Precip. Elev Updated Type